Time;durP1;ratioP1;P1;durP2;ratioP2;P2;SDS_P1;SDS_P2;PMS_P1;PMS_P2;Temp;Humidity;BMP_temperature;BMP_pressure;BME280_temperature;BME280_humidity;BME280_pressure;Samples;Min_cycle;Max_cycle;Signal;HPM_P1;HPM_P2
2022/04/10 00:01:50;;;;;;;6.20;2.90;;;;;;;;;;1728063;82;21088;-70
2022/04/10 00:04:18;;;;;;;4.53;3.02;;;;;;;;;;1718243;82;21575;-72
2022/04/10 00:06:45;;;;;;;3.92;2.85;;;;;;;;;;1718137;83;21088;-71
2022/04/10 00:09:13;;;;;;;3.25;2.22;;;;;;;;;;1718231;83;21037;-70
2022/04/10 00:11:41;;;;;;;4.47;2.67;;;;;;;;;;1718264;83;21054;-71
2022/04/10 00:14:07;;;;;;;5.08;2.60;;;;;;;;;;1718524;83;21533;-71
2022/04/10 00:16:34;;;;;;;3.62;2.40;;;;;;;;;;1718385;83;21045;-71
2022/04/10 00:19:04;;;;;;;3.98;2.95;;;;;;;;;;1718435;83;21597;-69
2022/04/10 00:21:31;;;;;;;3.58;2.45;;;;;;;;;;1718241;83;22048;-71
2022/04/10 00:23:58;;;;;;;3.10;2.50;;;;;;;;;;1718368;83;21076;-71
2022/04/10 00:26:25;;;;;;;4.22;2.60;;;;;;;;;;1718464;83;21065;-71
2022/04/10 00:28:52;;;;;;;3.55;2.45;;;;;;;;;;1718148;83;21025;-71
2022/04/10 00:31:18;;;;;;;6.85;2.92;;;;;;;;;;1718568;83;21572;-71
2022/04/10 00:33:44;;;;;;;3.90;2.80;;;;;;;;;;1718171;83;21093;-71
2022/04/10 00:36:10;;;;;;;4.90;2.70;;;;;;;;;;1718280;83;21034;-71
2022/04/10 00:38:36;;;;;;;3.85;2.20;;;;;;;;;;1718353;83;21077;-71
2022/04/10 00:41:02;;;;;;;4.35;2.40;;;;;;;;;;1718030;83;22116;-71
2022/04/10 00:43:32;;;;;;;3.02;2.37;;;;;;;;;;1718220;83;21576;-71
2022/04/10 00:45:59;;;;;;;4.40;2.80;;;;;;;;;;1718208;83;21013;-71
2022/04/10 00:48:25;;;;;;;4.37;2.95;;;;;;;;;;1718124;83;21128;-72
2022/04/10 00:53:37;;;;;;;5.28;3.00;;;;;;;;;;1718427;83;21557;-71
2022/04/10 00:56:04;;;;;;;4.20;2.95;;;;;;;;;;1718262;83;21568;-72
2022/04/10 00:58:31;;;;;;;3.60;2.77;;;;;;;;;;1718394;83;21053;-72
2022/04/10 01:03:47;;;;;;;3.02;2.70;;;;;;;;;;1744522;78;21711;-70
2022/04/10 01:06:14;;;;;;;4.50;2.65;;;;;;;;;;1742155;81;21053;-70
2022/04/10 01:08:42;;;;;;;4.78;2.80;;;;;;;;;;1728894;82;21068;-70
2022/04/10 01:11:09;;;;;;;4.55;2.83;;;;;;;;;;1728821;83;21012;-70
2022/04/10 01:13:37;;;;;;;4.00;2.80;;;;;;;;;;1728630;82;21729;-71
2022/04/10 01:16:04;;;;;;;3.60;2.90;;;;;;;;;;1728969;83;21060;-70
2022/04/10 01:18:31;;;;;;;3.90;2.55;;;;;;;;;;1728888;82;21587;-70
2022/04/10 01:21:03;;;;;;;5.28;3.22;;;;;;;;;;1728726;82;21666;-70
2022/04/10 01:23:30;;;;;;;3.67;2.60;;;;;;;;;;1728862;83;21056;-70
2022/04/10 01:25:57;;;;;;;3.37;2.65;;;;;;;;;;1718553;83;21084;-70
2022/04/10 01:28:24;;;;;;;4.85;2.50;;;;;;;;;;1728916;82;21068;-70
2022/04/10 01:30:51;;;;;;;4.87;2.87;;;;;;;;;;1728937;82;21033;-70
2022/04/10 01:33:17;;;;;;;3.80;2.25;;;;;;;;;;1728902;83;21586;-70
2022/04/10 01:35:43;;;;;;;3.55;2.47;;;;;;;;;;1728823;82;21115;-69
2022/04/10 01:38:13;;;;;;;3.85;2.70;;;;;;;;;;1728827;82;21116;-69
2022/04/10 01:40:40;;;;;;;4.10;2.47;;;;;;;;;;1728689;82;21045;-71
2022/04/10 01:43:07;;;;;;;4.05;2.37;;;;;;;;;;1728779;83;21091;-71
2022/04/10 01:45:34;;;;;;;5.80;2.70;;;;;;;;;;1728788;82;21044;-69
2022/04/10 01:48:03;;;;;;;5.15;2.42;;;;;;;;;;1729066;82;21084;-70
2022/04/10 01:50:30;;;;;;;6.95;2.80;;;;;;;;;;1728974;83;21067;-70
2022/04/10 01:52:58;;;;;;;4.55;2.98;;;;;;;;;;1728999;82;21594;-70
2022/04/10 01:55:27;;;;;;;4.97;3.02;;;;;;;;;;1728610;82;21610;-70
2022/04/10 01:57:54;;;;;;;4.72;3.00;;;;;;;;;;1729112;82;21048;-70
2022/04/10 02:00:20;;;;;;;5.03;2.40;;;;;;;;;;1728987;82;21080;-70
2022/04/10 02:02:49;;;;;;;4.95;3.08;;;;;;;;;;1728743;82;21084;-70
2022/04/10 02:05:15;;;;;;;3.80;2.70;;;;;;;;;;1728537;81;21041;-70
2022/04/10 02:07:42;;;;;;;5.05;2.90;;;;;;;;;;1728590;83;21108;-70
2022/04/10 02:10:10;;;;;;;4.17;2.60;;;;;;;;;;1728874;83;21052;-70
2022/04/10 02:12:37;;;;;;;4.55;2.80;;;;;;;;;;1728854;83;20945;-70
2022/04/10 02:17:40;;;;;;;3.58;2.50;;;;;;;;;;1820078;79;22768;-70
2022/04/10 02:20:09;;;;;;;7.45;3.45;;;;;;;;;;1793288;80;21060;-69
2022/04/10 02:22:36;;;;;;;4.28;2.42;;;;;;;;;;1792972;80;21527;-70
2022/04/10 02:25:04;;;;;;;5.17;3.02;;;;;;;;;;1792990;80;21051;-70
2022/04/10 02:27:33;;;;;;;3.92;2.70;;;;;;;;;;1793197;80;21016;-71
2022/04/10 02:29:59;;;;;;;3.72;2.87;;;;;;;;;;1793063;80;21476;-69
2022/04/10 02:32:29;;;;;;;3.40;2.55;;;;;;;;;;1792974;80;21024;-69
2022/04/10 02:34:56;;;;;;;3.70;2.72;;;;;;;;;;1793055;80;21091;-69
2022/04/10 02:37:24;;;;;;;4.90;2.50;;;;;;;;;;1792854;80;21665;-70
2022/04/10 02:39:50;;;;;;;6.10;3.10;;;;;;;;;;1792995;80;21104;-71
2022/04/10 02:42:16;;;;;;;4.78;2.70;;;;;;;;;;1792936;80;20989;-70
2022/04/10 02:44:43;;;;;;;5.00;2.90;;;;;;;;;;1792862;80;21035;-70
2022/04/10 02:47:10;;;;;;;5.80;3.22;;;;;;;;;;1792828;80;21084;-70
2022/04/10 02:49:36;;;;;;;4.22;2.90;;;;;;;;;;1792846;80;21099;-70
2022/04/10 02:52:04;;;;;;;4.72;2.85;;;;;;;;;;1793078;80;21060;-70
2022/04/10 02:54:30;;;;;;;4.70;2.42;;;;;;;;;;1792820;80;21048;-70
2022/04/10 02:56:57;;;;;;;3.40;2.62;;;;;;;;;;1793181;80;21060;-69
2022/04/10 02:59:25;;;;;;;4.83;2.60;;;;;;;;;;1792793;80;21649;-69
2022/04/10 03:01:52;;;;;;;6.33;2.70;;;;;;;;;;1793060;80;21059;-69
2022/04/10 03:04:19;;;;;;;3.98;2.87;;;;;;;;;;1792979;79;21042;-71
2022/04/10 03:06:47;;;;;;;3.92;2.52;;;;;;;;;;1792717;80;21028;-71
2022/04/10 03:09:13;;;;;;;6.08;2.42;;;;;;;;;;1792850;80;21068;-71
2022/04/10 03:11:41;;;;;;;3.55;2.40;;;;;;;;;;1792788;80;21201;-71
2022/04/10 03:14:08;;;;;;;3.25;2.60;;;;;;;;;;1792966;80;21055;-71
2022/04/10 03:16:36;;;;;;;5.47;3.25;;;;;;;;;;1790521;80;21351;-71
2022/04/10 03:19:03;;;;;;;5.67;3.22;;;;;;;;;;1787788;80;21052;-70
2022/04/10 03:21:30;;;;;;;4.90;2.62;;;;;;;;;;1788109;80;21016;-70
2022/04/10 03:23:57;;;;;;;3.83;2.60;;;;;;;;;;1787947;80;21009;-70
2022/04/10 03:26:25;;;;;;;4.03;2.67;;;;;;;;;;1787932;80;21056;-69
2022/04/10 03:28:51;;;;;;;6.45;2.72;;;;;;;;;;1787498;80;21528;-69
2022/04/10 03:31:20;;;;;;;3.62;2.72;;;;;;;;;;1787566;80;21005;-69
2022/04/10 03:33:46;;;;;;;4.03;2.72;;;;;;;;;;1787560;80;21523;-69
2022/04/10 03:36:13;;;;;;;4.58;2.85;;;;;;;;;;1787674;80;21080;-70
2022/04/10 03:38:40;;;;;;;3.67;2.90;;;;;;;;;;1787471;80;21099;-70
2022/04/10 03:41:06;;;;;;;5.17;3.10;;;;;;;;;;1787528;80;21017;-70
2022/04/10 03:43:33;;;;;;;4.03;2.83;;;;;;;;;;1787281;80;21059;-70
2022/04/10 03:46:01;;;;;;;4.50;2.80;;;;;;;;;;1787553;80;21041;-70
2022/04/10 03:48:30;;;;;;;3.65;2.60;;;;;;;;;;1787259;80;21044;-70
2022/04/10 03:50:56;;;;;;;3.83;2.80;;;;;;;;;;1758722;80;21060;-70
2022/04/10 03:53:23;;;;;;;3.35;2.50;;;;;;;;;;1787651;80;21033;-70
2022/04/10 03:55:50;;;;;;;6.45;3.00;;;;;;;;;;1787272;80;21041;-70
2022/04/10 03:58:17;;;;;;;4.85;2.85;;;;;;;;;;1787556;80;20993;-70
2022/04/10 04:00:45;;;;;;;3.05;2.40;;;;;;;;;;1787167;80;21009;-70
2022/04/10 04:03:11;;;;;;;4.60;2.98;;;;;;;;;;1787560;79;21053;-71
2022/04/10 04:05:38;;;;;;;6.15;3.17;;;;;;;;;;1787207;80;21056;-70
2022/04/10 04:08:07;;;;;;;5.95;3.20;;;;;;;;;;1787562;80;21547;-70
2022/04/10 04:10:34;;;;;;;5.08;3.40;;;;;;;;;;1787207;80;21091;-72
2022/04/10 04:13:01;;;;;;;6.20;3.67;;;;;;;;;;1787257;80;21071;-71
2022/04/10 04:15:30;;;;;;;6.00;3.45;;;;;;;;;;1787289;80;21060;-70
2022/04/10 04:17:57;;;;;;;5.20;3.40;;;;;;;;;;1786847;80;22086;-70
2022/04/10 04:20:25;;;;;;;5.25;3.15;;;;;;;;;;1786814;80;21068;-70
2022/04/10 04:22:53;;;;;;;5.20;3.70;;;;;;;;;;1786867;80;21060;-70
2022/04/10 04:25:20;;;;;;;5.53;3.35;;;;;;;;;;1787107;80;21595;-70
2022/04/10 04:27:46;;;;;;;4.70;3.37;;;;;;;;;;1786938;80;20996;-69
2022/04/10 04:30:13;;;;;;;6.10;2.87;;;;;;;;;;1755983;80;21075;-70
2022/04/10 04:32:43;;;;;;;7.15;3.52;;;;;;;;;;1787191;80;21028;-71
2022/04/10 04:35:14;;;;;;;9.15;3.67;;;;;;;;;;1786915;80;22031;-71
2022/04/10 04:37:41;;;;;;;7.67;3.35;;;;;;;;;;1787241;80;21017;-70
2022/04/10 04:40:09;;;;;;;8.40;3.65;;;;;;;;;;1787016;80;21043;-71
2022/04/10 04:42:36;;;;;;;4.95;3.20;;;;;;;;;;1787161;80;21060;-70
2022/04/10 04:45:04;;;;;;;7.30;3.77;;;;;;;;;;1787058;80;21060;-70
2022/04/10 04:47:31;;;;;;;6.17;3.77;;;;;;;;;;1787216;80;21502;-72
2022/04/10 04:49:59;;;;;;;6.85;3.37;;;;;;;;;;1786858;80;21008;-71
2022/04/10 04:52:26;;;;;;;7.20;3.95;;;;;;;;;;1787343;80;21048;-70
2022/04/10 04:54:54;;;;;;;8.13;3.98;;;;;;;;;;1786818;80;21538;-71
2022/04/10 04:57:21;;;;;;;5.00;3.42;;;;;;;;;;1787317;80;21072;-71
2022/04/10 04:59:49;;;;;;;4.15;2.87;;;;;;;;;;1786890;80;21032;-71
2022/04/10 05:02:15;;;;;;;6.78;3.90;;;;;;;;;;1787342;80;21020;-71
2022/04/10 05:04:43;;;;;;;5.78;3.70;;;;;;;;;;1786910;79;21120;-71
2022/04/10 05:07:10;;;;;;;8.00;3.70;;;;;;;;;;1787133;80;21088;-71
2022/04/10 05:09:37;;;;;;;4.97;3.02;;;;;;;;;;1787370;80;21500;-71
2022/04/10 05:12:04;;;;;;;5.87;3.45;;;;;;;;;;1787121;80;21808;-71
2022/04/10 05:14:32;;;;;;;6.97;3.62;;;;;;;;;;1787175;80;21056;-69
2022/04/10 05:17:00;;;;;;;4.97;3.70;;;;;;;;;;1783641;80;21029;-69
2022/04/10 05:19:26;;;;;;;4.42;3.10;;;;;;;;;;1779073;81;21084;-70
2022/04/10 05:21:53;;;;;;;7.95;3.70;;;;;;;;;;1778824;81;21513;-70
2022/04/10 05:24:20;;;;;;;7.85;4.33;;;;;;;;;;1778740;81;21587;-69
2022/04/10 05:26:47;;;;;;;7.90;4.35;;;;;;;;;;1778783;81;21068;-69
2022/04/10 05:29:14;;;;;;;8.33;4.22;;;;;;;;;;1778968;81;21056;-69
2022/04/10 05:31:40;;;;;;;6.22;3.37;;;;;;;;;;1778531;81;21060;-69
2022/04/10 05:34:07;;;;;;;6.70;3.92;;;;;;;;;;1778977;81;21512;-70
2022/04/10 05:36:34;;;;;;;5.83;4.08;;;;;;;;;;1778514;81;21068;-69
2022/04/10 05:39:00;;;;;;;5.47;3.40;;;;;;;;;;1778863;81;21047;-69
2022/04/10 05:41:27;;;;;;;8.78;4.25;;;;;;;;;;1778781;81;21018;-69
2022/04/10 05:43:55;;;;;;;6.25;4.08;;;;;;;;;;1778268;80;21037;-69
2022/04/10 05:46:21;;;;;;;5.50;3.37;;;;;;;;;;1778594;81;21037;-69
2022/04/10 05:48:51;;;;;;;6.85;3.90;;;;;;;;;;1778594;81;21057;-70
2022/04/10 05:51:17;;;;;;;5.67;4.03;;;;;;;;;;1778893;81;21072;-71
2022/04/10 05:53:44;;;;;;;6.25;3.70;;;;;;;;;;1778718;81;21075;-70
2022/04/10 05:56:11;;;;;;;7.37;3.83;;;;;;;;;;1778796;81;21041;-71
2022/04/10 05:58:40;;;;;;;7.22;4.22;;;;;;;;;;1778403;81;21108;-71
2022/04/10 06:01:07;;;;;;;7.95;4.00;;;;;;;;;;1778467;81;21101;-70
2022/04/10 06:03:34;;;;;;;7.90;4.08;;;;;;;;;;1778637;81;21088;-71
2022/04/10 06:06:03;;;;;;;7.67;3.83;;;;;;;;;;1778421;81;21537;-71
2022/04/10 06:08:31;;;;;;;5.47;3.45;;;;;;;;;;1778131;80;21052;-70
2022/04/10 06:10:59;;;;;;;7.47;3.22;;;;;;;;;;1778498;81;21683;-70
2022/04/10 06:13:25;;;;;;;6.62;4.78;;;;;;;;;;1778905;81;21057;-71
2022/04/10 06:15:57;;;;;;;5.70;3.50;;;;;;;;;;1776806;80;21017;-72
2022/04/10 06:18:23;;;;;;;5.40;3.80;;;;;;;;;;1785732;80;21079;-72
2022/04/10 06:20:51;;;;;;;7.08;3.80;;;;;;;;;;1786746;80;21088;-71
2022/04/10 06:23:20;;;;;;;5.28;3.37;;;;;;;;;;1787045;80;21024;-70
2022/04/10 06:25:47;;;;;;;5.70;3.70;;;;;;;;;;1786872;80;21493;-70
2022/04/10 06:28:14;;;;;;;6.45;3.90;;;;;;;;;;1786933;80;21539;-70
2022/04/10 06:30:44;;;;;;;5.25;3.90;;;;;;;;;;1787061;80;21045;-70
2022/04/10 06:33:13;;;;;;;7.85;3.70;;;;;;;;;;1787124;80;20996;-69
2022/04/10 06:35:40;;;;;;;6.78;3.42;;;;;;;;;;1787070;80;21019;-69
2022/04/10 06:38:07;;;;;;;10.00;4.67;;;;;;;;;;1786950;80;21103;-70
2022/04/10 06:40:33;;;;;;;7.80;3.87;;;;;;;;;;1786972;80;21536;-69
2022/04/10 06:43:01;;;;;;;7.40;4.70;;;;;;;;;;1787348;80;21033;-69
2022/04/10 06:45:29;;;;;;;10.08;4.50;;;;;;;;;;1781958;80;21520;-70
2022/04/10 06:47:58;;;;;;;7.35;4.20;;;;;;;;;;1787277;80;21064;-69
2022/04/10 06:50:38;;;;;;;9.03;4.22;;;;;;;;;;1785951;80;21127;-70
2022/04/10 06:53:07;;;;;;;8.60;4.65;;;;;;;;;;1786971;80;21060;-71
2022/04/10 06:55:34;;;;;;;8.55;4.50;;;;;;;;;;1786806;80;21103;-71
2022/04/10 06:58:00;;;;;;;5.33;3.70;;;;;;;;;;1786975;80;21575;-70
2022/04/10 07:00:27;;;;;;;6.75;3.52;;;;;;;;;;1786949;80;21204;-71
2022/04/10 07:02:54;;;;;;;7.58;3.65;;;;;;;;;;1786897;79;21067;-70
2022/04/10 07:05:21;;;;;;;4.95;3.47;;;;;;;;;;1786803;80;21024;-71
2022/04/10 07:07:49;;;;;;;4.20;3.15;;;;;;;;;;1786735;80;21060;-70
2022/04/10 07:10:16;;;;;;;5.85;3.15;;;;;;;;;;1787142;80;21562;-71
2022/04/10 07:12:43;;;;;;;4.42;3.62;;;;;;;;;;1787081;80;21047;-70
2022/04/10 07:15:10;;;;;;;4.62;3.40;;;;;;;;;;1787126;80;21087;-71
2022/04/10 07:17:38;;;;;;;5.10;3.33;;;;;;;;;;1783480;80;21591;-69
2022/04/10 07:20:07;;;;;;;5.50;3.35;;;;;;;;;;1778670;81;21080;-70
2022/04/10 07:25:19;;;;;;;4.30;3.10;;;;;;;;;;1778531;81;20997;-70
2022/04/10 07:27:46;;;;;;;4.55;3.40;;;;;;;;;;1778890;81;21060;-70
2022/04/10 07:30:20;;;;;;;6.05;3.65;;;;;;;;;;1778213;80;21111;-70
2022/04/10 07:32:54;;;;;;;6.90;3.60;;;;;;;;;;1778961;81;21021;-70
2022/04/10 07:35:21;;;;;;;6.15;4.10;;;;;;;;;;1778899;81;21608;-71
2022/04/10 07:38:01;;;;;;;5.40;3.50;;;;;;;;;;1778330;80;21072;-70
2022/04/10 07:40:30;;;;;;;4.97;3.50;;;;;;;;;;1778817;81;20997;-71
2022/04/10 07:42:58;;;;;;;5.00;3.50;;;;;;;;;;1778874;81;21075;-71
2022/04/10 07:48:12;;;;;;;4.65;3.65;;;;;;;;;;1777398;80;21064;-70
2022/04/10 07:50:39;;;;;;;3.60;3.12;;;;;;;;;;1778905;81;21493;-70
2022/04/10 07:53:07;;;;;;;5.78;3.47;;;;;;;;;;1778662;81;21092;-70
2022/04/10 07:55:37;;;;;;;4.95;3.15;;;;;;;;;;1778779;81;21025;-70
2022/04/10 07:58:06;;;;;;;5.25;3.67;;;;;;;;;;1778651;81;21048;-72
2022/04/10 08:00:34;;;;;;;5.33;3.27;;;;;;;;;;1778831;81;21305;-71
2022/04/10 08:03:01;;;;;;;5.97;3.50;;;;;;;;;;1778824;79;21110;-72
2022/04/10 08:05:33;;;;;;;4.03;3.15;;;;;;;;;;1775135;81;21028;-72
2022/04/10 08:08:03;;;;;;;4.83;3.12;;;;;;;;;;1777873;80;21028;-70
2022/04/10 08:10:29;;;;;;;4.85;3.20;;;;;;;;;;1778794;81;21037;-70
2022/04/10 08:12:58;;;;;;;5.35;3.55;;;;;;;;;;1778963;81;21052;-70
2022/04/10 08:15:24;;;;;;;5.05;3.00;;;;;;;;;;1778777;81;21060;-70
2022/04/10 08:17:51;;;;;;;4.72;2.90;;;;;;;;;;1782178;80;21003;-69
2022/04/10 08:20:17;;;;;;;3.10;2.65;;;;;;;;;;1787296;80;21017;-69
2022/04/10 08:22:47;;;;;;;4.22;3.00;;;;;;;;;;1787279;80;21092;-71
2022/04/10 08:25:16;;;;;;;4.30;2.90;;;;;;;;;;1787226;80;21037;-70
2022/04/10 08:27:41;;;;;;;5.45;3.62;;;;;;;;;;1787239;80;21033;-70
2022/04/10 08:30:10;;;;;;;7.15;3.72;;;;;;;;;;1787524;80;21048;-70
2022/04/10 08:32:38;;;;;;;5.35;3.00;;;;;;;;;;1787312;80;21029;-71
2022/04/10 08:35:10;;;;;;;5.22;3.08;;;;;;;;;;1787334;80;21196;-70
2022/04/10 08:37:37;;;;;;;5.47;3.02;;;;;;;;;;1758684;80;21033;-70
2022/04/10 08:40:03;;;;;;;4.45;2.87;;;;;;;;;;1787282;80;21052;-70
2022/04/10 08:42:29;;;;;;;3.45;2.60;;;;;;;;;;1787181;80;21058;-70
2022/04/10 08:44:56;;;;;;;4.10;2.77;;;;;;;;;;1787353;80;21053;-71
2022/04/10 08:47:22;;;;;;;4.58;3.00;;;;;;;;;;1787235;80;21536;-72
2022/04/10 08:49:49;;;;;;;4.15;2.95;;;;;;;;;;1787132;80;21052;-71
2022/04/10 08:52:16;;;;;;;5.25;3.37;;;;;;;;;;1787301;80;21100;-71
2022/04/10 08:54:43;;;;;;;6.58;3.60;;;;;;;;;;1787369;80;20993;-71
2022/04/10 08:57:10;;;;;;;7.72;3.92;;;;;;;;;;1787430;80;21071;-71
2022/04/10 08:59:39;;;;;;;7.17;3.72;;;;;;;;;;1787429;80;20989;-71
2022/04/10 09:02:06;;;;;;;5.30;3.50;;;;;;;;;;1787266;80;21052;-71
2022/04/10 09:04:34;;;;;;;5.40;3.35;;;;;;;;;;1787100;79;21091;-71
2022/04/10 09:07:03;;;;;;;6.22;3.33;;;;;;;;;;1787068;80;21001;-71
2022/04/10 09:09:31;;;;;;;4.30;3.37;;;;;;;;;;1787248;80;21052;-71
2022/04/10 09:11:58;;;;;;;5.97;3.65;;;;;;;;;;1787315;80;21037;-71
2022/04/10 09:14:25;;;;;;;5.35;3.35;;;;;;;;;;1787356;80;21099;-71
2022/04/10 09:17:12;;;;;;;9.03;3.80;;;;;;;;;;1786958;80;21077;-71
2022/04/10 09:19:42;;;;;;;5.20;3.30;;;;;;;;;;1787192;80;21071;-71
2022/04/10 09:22:19;;;;;;;6.40;3.75;;;;;;;;;;1787314;80;20996;-71
2022/04/10 09:25:05;;;;;;;7.33;3.80;;;;;;;;;;1787449;80;21033;-71
2022/04/10 09:27:32;;;;;;;7.35;3.80;;;;;;;;;;1787211;80;21092;-71
2022/04/10 09:30:00;;;;;;;5.28;4.00;;;;;;;;;;1787402;80;20992;-71
2022/04/10 09:32:45;;;;;;;6.20;3.72;;;;;;;;;;1787319;80;21033;-71
2022/04/10 09:35:13;;;;;;;9.00;4.28;;;;;;;;;;1787343;80;21564;-71
2022/04/10 09:37:50;;;;;;;5.65;3.50;;;;;;;;;;1787426;80;21048;-71
2022/04/10 09:40:22;;;;;;;5.10;4.03;;;;;;;;;;1787284;80;21037;-71
2022/04/10 09:42:50;;;;;;;5.83;3.47;;;;;;;;;;1787666;80;21483;-71
2022/04/10 09:45:28;;;;;;;8.28;4.00;;;;;;;;;;1787409;80;21088;-71
2022/04/10 09:47:55;;;;;;;7.35;3.92;;;;;;;;;;1787704;80;20993;-71
2022/04/10 10:01:34;;;;;;;8.10;4.45;;;;;;;;;;1813032;79;22277;-71
2022/04/10 10:04:02;;;;;;;4.72;3.12;;;;;;;;;;1789144;80;21067;-71
2022/04/10 10:06:35;;;;;;;5.42;3.40;;;;;;;;;;1788860;80;21023;-70
2022/04/10 10:09:00;;;;;;;5.10;3.50;;;;;;;;;;1788962;80;21555;-70
2022/04/10 10:11:27;;;;;;;3.95;3.10;;;;;;;;;;1788904;80;21099;-71
2022/04/10 10:13:56;;;;;;;4.10;3.12;;;;;;;;;;1789141;80;21547;-71
2022/04/10 10:16:23;;;;;;;5.05;3.50;;;;;;;;;;1789096;80;21032;-71
2022/04/10 10:18:52;;;;;;;4.92;3.22;;;;;;;;;;1788906;80;21131;-70
2022/04/10 10:21:19;;;;;;;4.42;3.40;;;;;;;;;;1789026;80;21001;-70
2022/04/10 10:23:47;;;;;;;4.45;3.22;;;;;;;;;;1788958;80;21499;-70
2022/04/10 10:26:21;;;;;;;5.55;3.60;;;;;;;;;;1789167;80;21055;-70
2022/04/10 10:28:55;;;;;;;6.17;3.87;;;;;;;;;;1787341;80;21028;-72
2022/04/10 10:31:37;;;;;;;4.25;3.15;;;;;;;;;;1786695;80;21008;-71
2022/04/10 10:34:05;;;;;;;4.97;3.67;;;;;;;;;;1788795;80;21028;-70
2022/04/10 10:36:32;;;;;;;5.10;3.37;;;;;;;;;;1789107;80;21000;-73
2022/04/10 10:38:58;;;;;;;4.37;3.22;;;;;;;;;;1789010;80;20977;-73
2022/04/10 10:41:27;;;;;;;4.60;3.52;;;;;;;;;;1788978;80;21082;-71
2022/04/10 10:43:55;;;;;;;4.87;3.00;;;;;;;;;;1789326;80;21023;-71
2022/04/10 10:46:22;;;;;;;5.45;3.20;;;;;;;;;;1788843;80;21008;-71
2022/04/10 10:48:50;;;;;;;3.67;2.98;;;;;;;;;;1789101;80;22048;-71
2022/04/10 10:51:19;;;;;;;4.72;3.50;;;;;;;;;;1789084;79;21046;-71
2022/04/10 10:53:55;;;;;;;3.98;2.85;;;;;;;;;;1789140;80;21000;-72
2022/04/10 10:56:29;;;;;;;5.00;3.20;;;;;;;;;;1788950;80;21032;-71
2022/04/10 10:58:57;;;;;;;3.40;3.00;;;;;;;;;;1789162;80;21000;-70
2022/04/10 11:01:26;;;;;;;5.00;3.25;;;;;;;;;;1766137;80;21106;-70
2022/04/10 11:03:59;;;;;;;4.95;3.20;;;;;;;;;;1767800;81;21300;-71
2022/04/10 11:06:26;;;;;;;;;;;;;;;;;;1770084;81;21074;-71
2022/04/10 11:08:52;;;;;;;4.35;3.02;;;;;;;;;;1767795;81;20471;-71
2022/04/10 11:11:19;;;;;;;4.28;2.47;;;;;;;;;;1767479;81;21562;-71
2022/04/10 11:13:47;;;;;;;4.55;2.90;;;;;;;;;;1767756;81;21019;-71
2022/04/10 11:16:13;;;;;;;5.15;3.10;;;;;;;;;;1767665;81;21070;-71
2022/04/10 11:18:44;;;;;;;3.70;2.25;;;;;;;;;;1767677;81;21031;-71
2022/04/10 11:21:15;;;;;;;4.40;3.27;;;;;;;;;;1767636;81;21526;-71
2022/04/10 11:23:45;;;;;;;5.42;3.67;;;;;;;;;;1767772;81;21024;-71
2022/04/10 11:26:15;;;;;;;3.95;2.52;;;;;;;;;;1767543;80;21127;-71
2022/04/10 11:28:52;;;;;;;4.05;2.65;;;;;;;;;;1767732;80;21118;-71
2022/04/10 11:31:27;;;;;;;4.22;2.83;;;;;;;;;;1767688;80;21460;-71
2022/04/10 11:33:55;;;;;;;4.47;2.92;;;;;;;;;;1766754;80;21055;-69
2022/04/10 11:36:21;;;;;;;4.67;2.85;;;;;;;;;;1767457;81;21119;-70
2022/04/10 11:38:58;;;;;;;4.30;2.60;;;;;;;;;;1767696;81;21062;-71
2022/04/10 11:41:26;;;;;;;4.03;2.70;;;;;;;;;;1765764;80;21070;-70
2022/04/10 11:43:52;;;;;;;3.95;2.70;;;;;;;;;;1738059;81;21024;-71
2022/04/10 11:46:18;;;;;;;3.45;2.58;;;;;;;;;;1767493;81;21067;-71
2022/04/10 11:48:45;;;;;;;3.80;2.70;;;;;;;;;;1767432;81;21553;-71
2022/04/10 11:51:11;;;;;;;4.05;2.98;;;;;;;;;;1767465;80;22246;-71
2022/04/10 11:53:38;;;;;;;4.58;3.10;;;;;;;;;;1767447;81;21044;-71
2022/04/10 11:56:04;;;;;;;5.00;2.70;;;;;;;;;;1767878;81;21075;-71
2022/04/10 11:58:31;;;;;;;4.62;3.15;;;;;;;;;;1767332;81;21550;-71
2022/04/10 12:00:58;;;;;;;3.37;2.42;;;;;;;;;;1747691;80;21044;-71
2022/04/10 12:03:25;;;;;;;4.45;3.00;;;;;;;;;;1788485;80;20988;-72
2022/04/10 12:05:51;;;;;;;3.47;2.62;;;;;;;;;;1788226;80;21035;-72
2022/04/10 12:08:20;;;;;;;5.10;3.05;;;;;;;;;;1788492;80;21107;-71
2022/04/10 12:10:59;;;;;;;4.12;2.65;;;;;;;;;;1788586;80;21054;-72
2022/04/10 12:13:30;;;;;;;5.30;3.00;;;;;;;;;;1788188;80;21035;-72
2022/04/10 12:15:59;;;;;;;4.22;2.77;;;;;;;;;;1788715;80;21075;-71
2022/04/10 12:18:27;;;;;;;4.33;2.80;;;;;;;;;;1788337;80;21067;-71
2022/04/10 12:20:59;;;;;;;3.37;2.80;;;;;;;;;;1788399;80;21059;-71
2022/04/10 12:23:27;;;;;;;4.40;3.10;;;;;;;;;;1788671;80;21019;-71
2022/04/10 12:25:54;;;;;;;4.50;3.10;;;;;;;;;;1788411;80;21004;-71
2022/04/10 12:28:21;;;;;;;3.72;3.10;;;;;;;;;;1788434;80;21000;-71
2022/04/10 12:30:48;;;;;;;4.55;3.42;;;;;;;;;;1788362;80;21075;-71
2022/04/10 12:33:14;;;;;;;3.85;3.02;;;;;;;;;;1788395;80;21028;-71
2022/04/10 12:35:41;;;;;;;3.30;2.60;;;;;;;;;;1788601;80;20972;-71
2022/04/10 12:38:08;;;;;;;4.40;3.10;;;;;;;;;;1788329;80;21036;-71
2022/04/10 12:40:35;;;;;;;3.67;2.45;;;;;;;;;;1788623;80;21021;-70
2022/04/10 12:43:02;;;;;;;5.83;3.47;;;;;;;;;;1788299;80;21043;-70
2022/04/10 12:45:32;;;;;;;5.55;2.87;;;;;;;;;;1788463;80;20992;-71
2022/04/10 12:47:59;;;;;;;5.37;3.17;;;;;;;;;;1788572;80;21516;-71
2022/04/10 12:50:25;;;;;;;2.72;2.30;;;;;;;;;;1788224;79;21040;-71
2022/04/10 12:52:56;;;;;;;3.60;2.92;;;;;;;;;;1788849;80;21016;-71
2022/04/10 12:55:21;;;;;;;5.20;2.75;;;;;;;;;;1786916;80;21028;-71
2022/04/10 12:57:55;;;;;;;4.55;3.10;;;;;;;;;;1788499;80;21036;-71
2022/04/10 13:00:24;;;;;;;4.42;3.55;;;;;;;;;;1788548;80;21050;-71
2022/04/10 13:02:51;;;;;;;5.65;3.22;;;;;;;;;;1788268;80;21508;-71
2022/04/10 13:05:19;;;;;;;4.83;3.90;;;;;;;;;;1788268;80;21043;-71
2022/04/10 13:08:00;;;;;;;5.25;3.40;;;;;;;;;;1788516;80;21050;-70
2022/04/10 13:10:28;;;;;;;5.90;3.45;;;;;;;;;;1755963;80;20993;-71
2022/04/10 13:13:02;;;;;;;5.40;3.27;;;;;;;;;;1788270;80;21042;-71
2022/04/10 13:15:30;;;;;;;3.40;2.83;;;;;;;;;;1788457;80;21040;-70
2022/04/10 13:17:57;;;;;;;4.20;3.25;;;;;;;;;;1788410;80;20984;-72
2022/04/10 13:20:26;;;;;;;6.30;3.50;;;;;;;;;;1788419;80;21063;-70
2022/04/10 13:22:52;;;;;;;4.20;3.00;;;;;;;;;;1788165;80;21476;-71
2022/04/10 13:25:19;;;;;;;5.47;3.42;;;;;;;;;;1788450;80;21129;-71
2022/04/10 13:27:46;;;;;;;4.83;3.35;;;;;;;;;;1788329;80;21025;-71
2022/04/10 13:30:13;;;;;;;4.17;3.10;;;;;;;;;;1788447;80;21115;-71
2022/04/10 13:32:40;;;;;;;4.97;3.22;;;;;;;;;;1788058;80;21055;-71
2022/04/10 13:35:08;;;;;;;4.72;3.20;;;;;;;;;;1788580;80;20980;-71
2022/04/10 13:37:34;;;;;;;4.75;3.15;;;;;;;;;;1788231;80;21087;-71
2022/04/10 13:40:00;;;;;;;5.35;2.80;;;;;;;;;;1788409;80;21027;-72
2022/04/10 13:42:30;;;;;;;4.10;3.22;;;;;;;;;;1788569;80;21090;-72
2022/04/10 13:44:56;;;;;;;4.05;2.83;;;;;;;;;;1788221;80;21468;-73
2022/04/10 13:47:24;;;;;;;4.90;3.15;;;;;;;;;;1756155;80;20976;-72
2022/04/10 13:49:50;;;;;;;6.90;4.47;;;;;;;;;;1788323;79;21491;-71
2022/04/10 13:52:17;;;;;;;5.17;3.40;;;;;;;;;;1788406;80;21255;-71
2022/04/10 13:54:43;;;;;;;4.95;3.05;;;;;;;;;;1788434;80;21048;-71
2022/04/10 13:57:09;;;;;;;6.67;3.95;;;;;;;;;;1788248;80;21103;-71
2022/04/10 13:59:36;;;;;;;5.37;3.30;;;;;;;;;;1788550;80;21043;-71
2022/04/10 14:02:05;;;;;;;5.20;3.30;;;;;;;;;;1771963;80;21605;-72
2022/04/10 14:04:32;;;;;;;6.50;3.72;;;;;;;;;;1767655;81;21562;-71
2022/04/10 14:06:58;;;;;;;6.62;3.47;;;;;;;;;;1767557;81;21511;-70
2022/04/10 14:09:26;;;;;;;6.25;3.87;;;;;;;;;;1767396;81;21023;-71
2022/04/10 14:11:52;;;;;;;6.95;3.87;;;;;;;;;;1767795;81;21491;-71
2022/04/10 14:14:20;;;;;;;7.12;4.22;;;;;;;;;;1767458;81;21067;-71
2022/04/10 14:16:46;;;;;;;7.42;3.87;;;;;;;;;;1767776;81;21039;-72
2022/04/10 14:19:14;;;;;;;5.58;4.15;;;;;;;;;;1767335;81;21108;-71
2022/04/10 14:21:40;;;;;;;9.40;4.37;;;;;;;;;;1767496;81;21092;-71
2022/04/10 14:24:06;;;;;;;5.87;4.25;;;;;;;;;;1767688;81;21087;-70
2022/04/10 14:26:33;;;;;;;6.85;3.98;;;;;;;;;;1767536;81;21062;-71
2022/04/10 14:29:00;;;;;;;5.62;3.45;;;;;;;;;;1767289;81;21012;-71
2022/04/10 14:31:27;;;;;;;9.15;3.67;;;;;;;;;;1767645;81;20996;-71
2022/04/10 14:33:53;;;;;;;6.35;4.03;;;;;;;;;;1767338;81;21031;-71
2022/04/10 14:36:19;;;;;;;5.87;4.15;;;;;;;;;;1767747;81;21110;-71
2022/04/10 14:38:45;;;;;;;5.33;3.37;;;;;;;;;;1767404;81;21075;-71
2022/04/10 14:41:12;;;;;;;6.50;3.50;;;;;;;;;;1767911;81;20996;-71
2022/04/10 14:43:41;;;;;;;6.60;4.25;;;;;;;;;;1767315;81;21094;-70
2022/04/10 14:46:08;;;;;;;4.75;3.15;;;;;;;;;;1767835;81;21027;-71
2022/04/10 14:48:35;;;;;;;4.75;3.35;;;;;;;;;;1767480;81;21059;-71
2022/04/10 14:51:03;;;;;;;6.47;4.12;;;;;;;;;;1767593;80;21083;-71
2022/04/10 14:53:31;;;;;;;8.28;3.65;;;;;;;;;;1767343;81;21162;-71
2022/04/10 14:55:58;;;;;;;8.78;3.67;;;;;;;;;;1767795;81;21094;-70
2022/04/10 14:58:24;;;;;;;8.03;4.12;;;;;;;;;;1767671;81;20972;-71
2022/04/10 15:00:51;;;;;;;6.83;3.50;;;;;;;;;;1767719;80;21062;-70
2022/04/10 15:03:21;;;;;;;8.73;4.17;;;;;;;;;;1767493;81;21059;-71
2022/04/10 15:05:48;;;;;;;7.40;5.12;;;;;;;;;;1767854;81;21087;-71
2022/04/10 15:08:16;;;;;;;8.03;4.35;;;;;;;;;;1767419;81;21550;-72
2022/04/10 15:10:46;;;;;;;8.78;4.97;;;;;;;;;;1767380;81;21123;-71
2022/04/10 15:13:13;;;;;;;10.65;4.22;;;;;;;;;;1767714;81;21020;-71